Alliance, Ohio
Current Conditions -  °F | °C
As of 5:21 PM on Friday 31 Oct 2014 (Local Time) from KCAK Reporting Station
Light Rain Light Rain  
Wind Chill: 46°   Ceiling: 2500
Heat Index: 46°   Visibility: 5mi
Dew Point: 39°   Wind: 3mph
Humidity: 76%   Direction: 210°SSW
Pressure: 29.85"   Gusts: NA
Location:  40.92°N, 81.1°W
Report Text: KCAK 312121Z 21003KT 5SM -RA OVC025 08/04 A2985 RMK AO2 P0000
Loading
Personal Weather Stations






























Interactive Weather Map
Tropical Storm Tracking
New forecast layout! Learn more

10-Day Weather Forecast

Advertisements
Track Severe Weather on mobile